createdAt,value
2018-04-19T00:00:44.505Z,100557
2018-04-19T00:03:14.218Z,100559
2018-04-19T00:05:44.845Z,100560
2018-04-19T00:08:14.804Z,100565
2018-04-19T00:10:45.238Z,100561
2018-04-19T00:13:16.443Z,100567
2018-04-19T00:15:46.701Z,100565
2018-04-19T00:18:17.228Z,100573
2018-04-19T00:20:48.162Z,100571
2018-04-19T00:23:18.363Z,100573
2018-04-19T00:25:49.008Z,100569
2018-04-19T00:28:18.826Z,100551
2018-04-19T00:30:49.216Z,100542
2018-04-19T00:33:19.605Z,100535
2018-04-19T00:35:50.639Z,100532
2018-04-19T00:38:21.169Z,100528
2018-04-19T00:40:51.629Z,100527
2018-04-19T00:43:22.488Z,100527
2018-04-19T00:45:53.210Z,100526
2018-04-19T00:48:23.620Z,100526
2018-04-19T00:50:53.984Z,100517
2018-04-19T00:53:24.111Z,100518
2018-04-19T00:55:54.505Z,100518
2018-04-19T00:58:25.116Z,100516
2018-04-19T01:00:55.829Z,100520
2018-04-19T01:03:26.228Z,100513
2018-04-19T01:05:56.654Z,100524
2018-04-19T01:08:27.274Z,100526
2018-04-19T01:10:58.121Z,100526
2018-04-19T01:13:28.540Z,100523
2018-04-19T01:15:58.677Z,100535
2018-04-19T01:18:29.493Z,100531
2018-04-19T01:21:00.232Z,100527
2018-04-19T01:23:29.955Z,100523
2018-04-19T01:26:00.579Z,100523
2018-04-19T01:28:31.107Z,100527
2018-04-19T01:31:01.735Z,100523
2018-04-19T01:33:32.380Z,100525
2018-04-19T01:36:14.057Z,100526
2018-04-19T01:38:44.598Z,100526
2018-04-19T01:41:14.557Z,100525
2018-04-19T01:43:45.037Z,100526
2018-04-19T01:46:15.774Z,100528
2018-04-19T01:48:46.757Z,100529
2018-04-19T01:51:17.644Z,100528
2018-04-19T01:53:48.257Z,100526
2018-04-19T01:56:18.500Z,100527
2018-04-19T01:58:49.136Z,100523
2018-04-19T02:01:19.047Z,100526
2018-04-19T02:03:49.801Z,100528
2018-04-19T02:06:20.694Z,100528
2018-04-19T02:08:51.060Z,100533
2018-04-19T02:11:21.460Z,100528
2018-04-19T02:13:51.392Z,100532
2018-04-19T02:16:21.880Z,100532
2018-04-19T02:18:52.506Z,100523
2018-04-19T02:21:22.838Z,100518
2018-04-19T02:23:53.410Z,100519
2018-04-19T02:26:23.635Z,100508
2018-04-19T02:28:54.345Z,100504
2018-04-19T02:31:24.377Z,100506
2018-04-19T02:33:54.972Z,100509
2018-04-19T02:36:25.393Z,100506
2018-04-19T02:38:56.028Z,100507
2018-04-19T02:41:26.553Z,100502
2018-04-19T02:43:57.103Z,100499
2018-04-19T02:46:27.042Z,100507
2018-04-19T02:48:58.769Z,100509
2018-04-19T02:51:29.196Z,100512
2018-04-19T02:54:00.071Z,100512
2018-04-19T02:56:30.457Z,100516
2018-04-19T02:59:01.500Z,100516
2018-04-19T03:01:32.083Z,100518
2018-04-19T03:04:02.696Z,100521
2018-04-19T03:06:33.800Z,100524
2018-04-19T03:09:03.763Z,100519
2018-04-19T03:11:34.378Z,100516
2018-04-19T03:14:04.943Z,100519
2018-04-19T03:16:35.423Z,100519
2018-04-19T03:19:06.198Z,100515
2018-04-19T03:21:36.756Z,100522
2018-04-19T03:24:07.213Z,100527
2018-04-19T03:26:37.161Z,100535
2018-04-19T03:29:07.699Z,100532
2018-04-19T03:31:38.102Z,100521
2018-04-19T03:34:09.853Z,100539
2018-04-19T03:36:40.423Z,100540
2018-04-19T03:39:11.130Z,100539
2018-04-19T03:41:41.564Z,100543
2018-04-19T03:44:11.841Z,100549
2018-04-19T03:46:42.011Z,100554
2018-04-19T03:49:12.825Z,100550
2018-04-19T03:51:43.344Z,100551
2018-04-19T03:54:13.678Z,100548
2018-04-19T03:56:43.629Z,100549
2018-04-19T03:59:14.083Z,100553
2018-04-19T04:01:44.556Z,100556
2018-04-19T04:04:14.963Z,100550
2018-04-19T04:06:45.480Z,100556
2018-04-19T04:09:16.994Z,100558
2018-04-19T04:11:47.802Z,100563
2018-04-19T04:14:18.525Z,100561
2018-04-19T04:17:00.251Z,100566
2018-04-19T04:19:42.049Z,100571
2018-04-19T04:22:23.835Z,100568
2018-04-19T04:24:53.650Z,100565
2018-04-19T04:27:23.468Z,100567
2018-04-19T04:29:53.297Z,100564
2018-04-19T04:32:23.204Z,100562
2018-04-19T04:34:53.001Z,100566
2018-04-19T04:37:22.774Z,100567
2018-04-19T04:39:52.746Z,100570
2018-04-19T04:42:22.650Z,100566
2018-04-19T04:44:52.458Z,100559
2018-04-19T04:47:22.375Z,100561
2018-04-19T04:49:52.393Z,100558
2018-04-19T04:52:22.311Z,100554
2018-04-19T04:54:52.113Z,100556
2018-04-19T04:57:22.039Z,100551
2018-04-19T04:59:51.957Z,100552
2018-04-19T05:02:21.867Z,100556
2018-04-19T05:04:51.685Z,100554
2018-04-19T05:07:21.589Z,100560
2018-04-19T05:09:51.415Z,100568
2018-04-19T05:12:21.218Z,100572
2018-04-19T05:14:51.034Z,100570
2018-04-19T05:17:20.838Z,100567
2018-04-19T05:19:50.657Z,100564
2018-04-19T05:22:20.471Z,100568
2018-04-19T05:24:50.484Z,100572
2018-04-19T05:27:21.117Z,100570
2018-04-19T05:29:51.032Z,100577
2018-04-19T05:32:20.851Z,100574
2018-04-19T05:34:50.765Z,100577
2018-04-19T05:37:21.385Z,100570
2018-04-19T05:39:51.206Z,100571
2018-04-19T05:42:21.023Z,100571
2018-04-19T05:44:50.840Z,100574
2018-04-19T05:47:20.658Z,100574
2018-04-19T05:49:50.461Z,100578
2018-04-19T05:52:20.457Z,100577
2018-04-19T05:54:50.392Z,100579
2018-04-19T05:57:20.200Z,100571
2018-04-19T05:59:50.020Z,100573
2018-04-19T06:02:19.825Z,100574
2018-04-19T06:04:49.646Z,100570
2018-04-19T06:07:19.546Z,100568
2018-04-19T06:09:49.369Z,100563
2018-04-19T06:12:19.291Z,100556
2018-04-19T06:14:49.107Z,100553
2018-04-19T06:17:19.010Z,100552
2018-04-19T06:19:48.906Z,100547
2018-04-19T06:22:18.743Z,100556
2018-04-19T06:24:48.553Z,100553
2018-04-19T06:27:18.468Z,100552
2018-04-19T06:29:48.484Z,100552
2018-04-19T06:32:18.399Z,100547
2018-04-19T06:34:48.219Z,100551
2018-04-19T06:37:18.028Z,100556
2018-04-19T06:39:47.846Z,100547
2018-04-19T06:42:17.660Z,100547
2018-04-19T06:44:47.467Z,100552
2018-04-19T06:47:17.384Z,100557
2018-04-19T06:49:47.181Z,100548
2018-04-19T06:52:17.010Z,100551
2018-04-19T06:54:46.832Z,100551
2018-04-19T06:57:16.629Z,100558
2018-04-19T06:59:46.561Z,100566
2018-04-19T07:02:16.356Z,100561
2018-04-19T07:04:46.285Z,100558
2018-04-19T07:07:16.087Z,100562
2018-04-19T07:09:46.021Z,100564
2018-04-19T07:12:16.020Z,100564
2018-04-19T07:14:45.965Z,100556
2018-04-19T07:17:15.964Z,100550
2018-04-19T07:19:45.877Z,100554
2018-04-19T07:22:15.796Z,100551
2018-04-19T07:24:45.599Z,100553
2018-04-19T07:27:15.514Z,100557
2018-04-19T07:29:45.441Z,100546
2018-04-19T07:32:15.399Z,100545
2018-04-19T07:34:45.157Z,100551
2018-04-19T07:37:15.071Z,100549
2018-04-19T07:39:44.879Z,100553
2018-04-19T07:42:14.660Z,100542
2018-04-19T07:44:44.522Z,100543
2018-04-19T07:47:14.325Z,100547
2018-04-19T07:49:44.241Z,100545
2018-04-19T07:52:14.255Z,100546
2018-04-19T07:54:44.071Z,100542
2018-04-19T07:57:13.899Z,100536
2018-04-19T07:59:43.798Z,100536
2018-04-19T08:02:13.718Z,100539
2018-04-19T08:04:43.535Z,100539
2018-04-19T08:07:13.449Z,100541
2018-04-19T08:09:43.259Z,100536
2018-04-19T08:12:13.183Z,100530
2018-04-19T08:14:43.095Z,100534
2018-04-19T08:17:12.997Z,100531
2018-04-19T08:19:42.817Z,100532
2018-04-19T08:22:12.725Z,100532
2018-04-19T08:24:42.539Z,100529
2018-04-19T08:27:12.353Z,100527
2018-04-19T08:29:42.170Z,100524
2018-04-19T08:32:11.978Z,100516
2018-04-19T08:34:41.796Z,100515
2018-04-19T08:37:11.601Z,100512
2018-04-19T08:39:41.377Z,100503
2018-04-19T08:42:11.231Z,100503
2018-04-19T08:44:41.046Z,100497
2018-04-19T08:47:10.814Z,100488
2018-04-19T08:49:40.667Z,100488
2018-04-19T08:52:10.551Z,100478
2018-04-19T08:54:40.398Z,100466
2018-04-19T08:57:10.222Z,100460
2018-04-19T08:59:40.131Z,100457
2018-04-19T09:02:10.040Z,100457
2018-04-19T09:04:39.957Z,100449
2018-04-19T09:07:09.779Z,100443
2018-04-19T09:09:39.579Z,100443
2018-04-19T09:12:09.393Z,100436
2018-04-19T09:14:39.213Z,100442
2018-04-19T09:17:09.133Z,100444
2018-04-19T09:19:38.942Z,100448
2018-04-19T09:22:08.754Z,100446
2018-04-19T09:24:38.667Z,100443
2018-04-19T09:27:08.475Z,100436
2018-04-19T09:29:38.362Z,100436
2018-04-19T09:32:08.211Z,100437
2018-04-19T09:34:38.104Z,100429
2018-04-19T09:37:08.192Z,100434
2018-04-19T09:39:38.053Z,100425
2018-04-19T09:42:07.845Z,100424
2018-04-19T09:44:37.780Z,100423
2018-04-19T09:47:07.572Z,100417
2018-04-19T09:49:37.417Z,100414
2018-04-19T09:52:07.423Z,100412
2018-04-19T09:54:37.234Z,100407
2018-04-19T09:57:07.051Z,100403
2018-04-19T09:59:36.866Z,100403
2018-04-19T10:02:06.778Z,100394
2018-04-19T10:04:36.690Z,100389
2018-04-19T10:07:06.509Z,100383
2018-04-19T10:09:36.422Z,100376
2018-04-19T10:12:06.347Z,100372
2018-04-19T10:14:36.151Z,100365
2018-04-19T10:17:05.983Z,100355
2018-04-19T10:19:37.424Z,100352
2018-04-19T10:22:07.205Z,100348
2018-04-19T10:24:37.040Z,100353
2018-04-19T10:27:06.854Z,100336
2018-04-19T10:29:36.771Z,100331
2018-04-19T10:32:06.583Z,100328
2018-04-19T10:34:36.398Z,100317
2018-04-19T10:37:06.214Z,100314
2018-04-19T10:39:36.236Z,100310
2018-04-19T10:42:06.141Z,100304
2018-04-19T10:44:35.951Z,100305
2018-04-19T10:47:05.911Z,100306
2018-04-19T10:49:35.683Z,100300
2018-04-19T10:52:05.571Z,100301
2018-04-19T10:54:35.417Z,100303
2018-04-19T10:57:05.327Z,100298
2018-04-19T10:59:35.213Z,100294
2018-04-19T11:02:05.157Z,100294
2018-04-19T11:04:34.975Z,100283
2018-04-19T11:07:04.805Z,100273
2018-04-19T11:09:34.705Z,100274
2018-04-19T11:12:04.514Z,100266
2018-04-19T11:14:34.327Z,100270
2018-04-19T11:17:04.121Z,100259
2018-04-19T11:19:33.962Z,100253
2018-04-19T11:22:03.871Z,100251
2018-04-19T11:24:33.686Z,100246
2018-04-19T11:27:03.589Z,100235
2018-04-19T11:29:33.408Z,100234
2018-04-19T11:32:03.221Z,100235
2018-04-19T11:34:33.031Z,100229
2018-04-19T11:37:02.843Z,100220
2018-04-19T11:39:32.761Z,100228
2018-04-19T11:42:02.842Z,100219
2018-04-19T11:44:32.703Z,100212
2018-04-19T11:47:02.512Z,100214
2018-04-19T11:49:32.423Z,100212
2018-04-19T11:52:03.271Z,100205
2018-04-19T11:54:33.174Z,100207
2018-04-19T11:57:03.100Z,100206
2018-04-19T11:59:33.012Z,100197
2018-04-19T12:02:02.917Z,100191
2018-04-19T12:04:32.733Z,100185
2018-04-19T12:07:02.650Z,100176
2018-04-19T12:09:32.467Z,100168
2018-04-19T12:12:02.192Z,100161
2018-04-19T12:14:31.990Z,100160
2018-04-19T12:17:01.899Z,100149
2018-04-19T12:19:31.717Z,100144
2018-04-19T12:22:01.533Z,100133
2018-04-19T12:24:31.391Z,100127
2018-04-19T12:27:01.158Z,100129
2018-04-19T12:29:31.075Z,100122
2018-04-19T12:32:00.980Z,100120
2018-04-19T12:34:30.901Z,100111
2018-04-19T12:37:00.711Z,100097
2018-04-19T12:39:30.628Z,100106
2018-04-19T12:42:00.449Z,100100
2018-04-19T12:44:30.249Z,100096
2018-04-19T12:47:00.064Z,100085
2018-04-19T12:49:29.882Z,100074
2018-04-19T12:51:59.800Z,100059
2018-04-19T12:54:29.612Z,100053
2018-04-19T12:56:59.430Z,100042
2018-04-19T12:59:29.246Z,100050
2018-04-19T13:01:59.049Z,100056
2018-04-19T13:04:28.974Z,100052
2018-04-19T13:06:58.737Z,100049
2018-04-19T13:09:28.588Z,100047
2018-04-19T13:11:58.687Z,100035
2018-04-19T13:14:28.628Z,100030
2018-04-19T13:16:58.536Z,100023
2018-04-19T13:19:28.361Z,100024
2018-04-19T13:21:58.167Z,100026
2018-04-19T13:24:28.091Z,100027
2018-04-19T13:26:58.000Z,100019
2018-04-19T13:29:27.817Z,100018
2018-04-19T13:31:57.725Z,100006
2018-04-19T13:34:27.540Z,100000
2018-04-19T13:36:57.361Z,99991
2018-04-19T13:39:27.266Z,99986
2018-04-19T13:41:57.178Z,99977
2018-04-19T13:44:26.997Z,99980
2018-04-19T13:46:56.809Z,99970
2018-04-19T13:49:26.691Z,99962
2018-04-19T13:51:56.437Z,99958
2018-04-19T13:54:26.459Z,99956
2018-04-19T13:56:56.261Z,99953
2018-04-19T13:59:26.052Z,99954
2018-04-19T14:01:55.792Z,99944
2018-04-19T14:04:25.603Z,99932
2018-04-19T14:06:55.516Z,99936
2018-04-19T14:09:25.327Z,99938
2018-04-19T14:11:55.144Z,99931
2018-04-19T14:14:24.968Z,99933
2018-04-19T14:16:54.874Z,99929
2018-04-19T14:19:24.684Z,99925
2018-04-19T14:21:54.498Z,99920
2018-04-19T14:24:24.418Z,99916
2018-04-19T14:26:54.227Z,99913
2018-04-19T14:29:24.040Z,99911
2018-04-19T14:31:53.867Z,99914
2018-04-19T14:34:23.664Z,99906
2018-04-19T14:36:53.583Z,99903
2018-04-19T14:39:26.703Z,99907
2018-04-19T14:42:04.876Z,99903
2018-04-19T14:44:34.703Z,99897
2018-04-19T14:47:04.480Z,99891
2018-04-19T14:49:34.315Z,99886
2018-04-19T14:52:04.137Z,99889
2018-04-19T14:54:34.048Z,99890
2018-04-19T14:57:03.857Z,99886
2018-04-19T14:59:33.671Z,99878
2018-04-19T15:02:03.487Z,99879
2018-04-19T15:04:33.301Z,99873
2018-04-19T15:07:03.186Z,99876
2018-04-19T15:09:33.032Z,99877
2018-04-19T15:12:02.840Z,99870
2018-04-19T15:14:32.657Z,99862
2018-04-19T15:17:02.482Z,99865
2018-04-19T15:19:32.278Z,99864
2018-04-19T15:22:02.097Z,99865
2018-04-19T15:24:31.916Z,99864
2018-04-19T15:27:01.721Z,99859
2018-04-19T15:29:31.532Z,99854
2018-04-19T15:32:01.321Z,99852
2018-04-19T15:34:31.153Z,99845
2018-04-19T15:37:00.981Z,99848
2018-04-19T15:39:30.787Z,99846
2018-04-19T15:42:00.605Z,99842
2018-04-19T15:44:30.382Z,99835
2018-04-19T15:47:01.044Z,99833
2018-04-19T15:49:30.955Z,99827
2018-04-19T15:52:00.766Z,99825
2018-04-19T15:54:30.743Z,99822
2018-04-19T15:57:00.606Z,99819
2018-04-19T15:59:30.410Z,99814
2018-04-19T16:02:00.274Z,99813
2018-04-19T16:04:30.151Z,99816
2018-04-19T16:06:59.955Z,99810
2018-04-19T16:09:29.774Z,99808
2018-04-19T16:11:59.743Z,99806
2018-04-19T16:14:29.609Z,99801
2018-04-19T16:16:59.415Z,99800
2018-04-19T16:19:29.230Z,99799
2018-04-19T16:21:59.042Z,99791
2018-04-19T16:24:28.880Z,99789
2018-04-19T16:26:58.819Z,99795
2018-04-19T16:29:28.628Z,99790
2018-04-19T16:31:58.507Z,99788
2018-04-19T16:34:30.761Z,99794
2018-04-19T16:37:00.526Z,99788
2018-04-19T16:39:30.285Z,99789
2018-04-19T16:42:00.255Z,99787
2018-04-19T16:44:30.121Z,99783
2018-04-19T16:46:59.931Z,99792
2018-04-19T16:49:29.748Z,99791
2018-04-19T16:51:59.515Z,99802
2018-04-19T16:54:29.368Z,99804
2018-04-19T16:56:59.185Z,99803
2018-04-19T16:59:28.999Z,99807
2018-04-19T17:01:58.918Z,99811
2018-04-19T17:04:28.830Z,99805
2018-04-19T17:06:58.644Z,99807
2018-04-19T17:09:28.452Z,99805
2018-04-19T17:11:58.364Z,99802
2018-04-19T17:14:28.177Z,99802
2018-04-19T17:16:58.099Z,99810
2018-04-19T17:19:27.917Z,99808
2018-04-19T17:21:57.687Z,99804
2018-04-19T17:24:27.538Z,99809
2018-04-19T17:26:57.350Z,99812
2018-04-19T17:29:27.289Z,99809
2018-04-19T17:31:57.079Z,99809
2018-04-19T17:34:26.889Z,99808
2018-04-19T17:36:56.605Z,99810
2018-04-19T17:39:26.412Z,99809
2018-04-19T17:41:56.225Z,99815
2018-04-19T17:44:26.048Z,99820
2018-04-19T17:46:55.850Z,99818
2018-04-19T17:49:25.684Z,99822
2018-04-19T17:51:55.519Z,99825
2018-04-19T17:54:25.292Z,99822
2018-04-19T17:56:55.108Z,99829
2018-04-19T17:59:25.027Z,99834
2018-04-19T18:01:54.843Z,99836
2018-04-19T18:04:24.751Z,99840
2018-04-19T18:06:54.558Z,99845
2018-04-19T18:09:24.328Z,99852
2018-04-19T18:11:54.189Z,99845
2018-04-19T18:14:24.105Z,99848
2018-04-19T18:16:53.938Z,99859
2018-04-19T18:19:23.738Z,99852
2018-04-19T18:21:53.538Z,99860
2018-04-19T18:24:23.352Z,99859
2018-04-19T18:26:53.168Z,99857
2018-04-19T18:29:23.797Z,99865
2018-04-19T18:31:53.931Z,99876
2018-04-19T18:34:23.740Z,99875
2018-04-19T18:36:53.576Z,99877
2018-04-19T18:39:23.465Z,99874
2018-04-19T18:41:56.417Z,99875
2018-04-19T18:44:26.261Z,99868
2018-04-19T18:46:56.078Z,99872
2018-04-19T18:49:25.886Z,99871
2018-04-19T18:51:55.811Z,99861
2018-04-19T18:54:25.632Z,99862
2018-04-19T18:56:55.433Z,99868
2018-04-19T18:59:25.253Z,99868
2018-04-19T19:01:54.977Z,99867
2018-04-19T19:04:24.774Z,99871
2018-04-19T19:06:54.647Z,99867
2018-04-19T19:09:24.506Z,99865
2018-04-19T19:11:54.325Z,99860
2018-04-19T19:14:24.227Z,99859
2018-04-19T19:16:54.037Z,99860
2018-04-19T19:19:35.626Z,99856
2018-04-19T19:22:05.443Z,99860
2018-04-19T19:24:35.459Z,99857
2018-04-19T19:27:05.270Z,99854
2018-04-19T19:29:35.085Z,99853
2018-04-19T19:32:04.893Z,99859
2018-04-19T19:34:34.712Z,99863
2018-04-19T19:37:04.521Z,99861
2018-04-19T19:39:34.346Z,99860
2018-04-19T19:42:04.249Z,99866
2018-04-19T19:44:34.684Z,99870
2018-04-19T19:47:04.603Z,99866
2018-04-19T19:49:34.409Z,99871
2018-04-19T19:52:04.316Z,99856
2018-04-19T19:54:34.131Z,99856
2018-04-19T19:57:03.943Z,99860
2018-04-19T19:59:33.868Z,99851
2018-04-19T20:02:03.680Z,99855
2018-04-19T20:04:34.086Z,99853
2018-04-19T20:07:04.522Z,99847
2018-04-19T20:09:35.353Z,99842
2018-04-19T20:12:06.016Z,99846
2018-04-19T20:14:35.889Z,99844
2018-04-19T20:17:06.042Z,99835
2018-04-19T20:19:36.436Z,99836
2018-04-19T20:22:07.151Z,99832
2018-04-19T20:24:37.621Z,99833
2018-04-19T20:27:08.796Z,99841
2018-04-19T20:29:39.191Z,99841
2018-04-19T20:32:09.937Z,99840
2018-04-19T20:34:40.741Z,99845
2018-04-19T20:37:11.525Z,99841
2018-04-19T20:39:42.297Z,99837
2018-04-19T20:42:12.661Z,99831
2018-04-19T20:44:43.351Z,99831
2018-04-19T20:47:13.738Z,99833
2018-04-19T20:49:44.392Z,99836
2018-04-19T20:52:14.685Z,99838
2018-04-19T20:54:45.535Z,99839
2018-04-19T20:57:16.372Z,99837
2018-04-19T20:59:47.099Z,99835
2018-04-19T21:02:18.190Z,99834
2018-04-19T21:04:48.471Z,99834
2018-04-19T21:07:18.911Z,99835
2018-04-19T21:09:49.676Z,99838
2018-04-19T21:12:20.477Z,99831
2018-04-19T21:14:51.411Z,99829
2018-04-19T21:17:22.421Z,99830
2018-04-19T21:19:52.845Z,99836
2018-04-19T21:22:24.117Z,99838
2018-04-19T21:24:54.904Z,99834
2018-04-19T21:27:25.667Z,99835
2018-04-19T21:29:56.008Z,99832
2018-04-19T21:32:26.488Z,99837
2018-04-19T21:34:57.174Z,99828
2018-04-19T21:37:28.267Z,99820
2018-04-19T21:39:58.734Z,99812
2018-04-19T21:42:29.209Z,99823
2018-04-19T21:45:00.280Z,99818
2018-04-19T21:47:30.319Z,99821
2018-04-19T21:50:01.153Z,99820
2018-04-19T21:52:31.463Z,99816
2018-04-19T21:55:02.207Z,99827
2018-04-19T21:57:33.040Z,99818
2018-04-19T22:00:03.567Z,99823
2018-04-19T22:02:33.787Z,99822
2018-04-19T22:05:04.239Z,99807
2018-04-19T22:07:34.764Z,99813
2018-04-19T22:10:05.901Z,99807
2018-04-19T22:12:36.423Z,99800
2018-04-19T22:15:06.629Z,99796
2018-04-19T22:17:37.001Z,99799
2018-04-19T22:20:07.726Z,99797
2018-04-19T22:22:38.170Z,99790
2018-04-19T22:25:08.711Z,99793
2018-04-19T22:27:39.535Z,99785
2018-04-19T22:30:09.740Z,99773
2018-04-19T22:32:40.103Z,99779
2018-04-19T22:35:10.574Z,99777
2018-04-19T22:37:40.825Z,99778
2018-04-19T22:40:11.465Z,99772
2018-04-19T22:42:42.019Z,99772
2018-04-19T22:45:12.784Z,99755
2018-04-19T22:47:42.840Z,99755
2018-04-19T22:50:13.824Z,99740
2018-04-19T22:52:44.204Z,99733
2018-04-19T22:55:14.900Z,99733
2018-04-19T22:57:45.441Z,99730
2018-04-19T23:00:15.569Z,99735
2018-04-19T23:02:45.935Z,99726
2018-04-19T23:05:16.634Z,99723
2018-04-19T23:07:46.979Z,99723
2018-04-19T23:10:17.607Z,99718
2018-04-19T23:12:47.911Z,99714
2018-04-19T23:15:18.424Z,99715
2018-04-19T23:17:48.759Z,99705
2018-04-19T23:20:19.507Z,99709
2018-04-19T23:22:50.051Z,99708
2018-04-19T23:25:20.969Z,99700
2018-04-19T23:27:52.752Z,99693
2018-04-19T23:30:23.070Z,99682
2018-04-19T23:32:53.612Z,99679
2018-04-19T23:35:24.156Z,99683
2018-04-19T23:37:54.616Z,99683
2018-04-19T23:40:25.291Z,99673
2018-04-19T23:42:55.711Z,99664
2018-04-19T23:45:25.742Z,99663
2018-04-19T23:47:56.433Z,99659
2018-04-19T23:50:27.222Z,99663
2018-04-19T23:52:58.342Z,99652
2018-04-19T23:55:28.646Z,99653
2018-04-19T23:57:59.268Z,99655
